sensor_id;sensor_type;location;lat;lon;timestamp;pressure;altitude;pressure_sealevel;temperature;humidity
70437;BME280;57877;39.750;-104.894;2022-08-19T00:01:26;83947.70;;;32.91;11.10
70437;BME280;57877;39.750;-104.894;2022-08-19T00:03:50;83944.04;;;33.61;10.81
70437;BME280;57877;39.750;-104.894;2022-08-19T00:06:16;83941.65;;;32.52;10.04
70437;BME280;57877;39.750;-104.894;2022-08-19T00:08:41;83944.32;;;32.25;10.98
70437;BME280;57877;39.750;-104.894;2022-08-19T00:11:06;83943.37;;;31.72;11.18
70437;BME280;57877;39.750;-104.894;2022-08-19T00:13:31;83945.38;;;31.34;11.57
70437;BME280;57877;39.750;-104.894;2022-08-19T00:15:56;83945.61;;;30.90;11.76
70437;BME280;57877;39.750;-104.894;2022-08-19T00:18:21;83945.36;;;30.11;11.97
70437;BME280;57877;39.750;-104.894;2022-08-19T00:20:46;83946.17;;;31.12;11.57
70437;BME280;57877;39.750;-104.894;2022-08-19T00:23:11;83942.61;;;30.38;11.74
70437;BME280;57877;39.750;-104.894;2022-08-19T00:25:36;83938.71;;;30.24;12.12
70437;BME280;57877;39.750;-104.894;2022-08-19T00:28:01;83938.42;;;31.01;11.76
70437;BME280;57877;39.750;-104.894;2022-08-19T00:30:27;83934.05;;;30.34;12.25
70437;BME280;57877;39.750;-104.894;2022-08-19T00:32:51;83936.19;;;29.88;12.78
70437;BME280;57877;39.750;-104.894;2022-08-19T00:35:16;83932.99;;;29.55;13.24
70437;BME280;57877;39.750;-104.894;2022-08-19T00:37:41;83935.39;;;30.09;13.07
70437;BME280;57877;39.750;-104.894;2022-08-19T00:40:07;83935.29;;;29.93;13.03
70437;BME280;57877;39.750;-104.894;2022-08-19T00:42:32;83936.38;;;29.55;13.13
70437;BME280;57877;39.750;-104.894;2022-08-19T00:44:56;83934.40;;;29.56;13.14
70437;BME280;57877;39.750;-104.894;2022-08-19T00:47:21;83933.35;;;28.73;13.62
70437;BME280;57877;39.750;-104.894;2022-08-19T00:49:49;83934.34;;;29.59;13.41
70437;BME280;57877;39.750;-104.894;2022-08-19T00:52:15;83933.18;;;28.63;13.55
70437;BME280;57877;39.750;-104.894;2022-08-19T00:54:37;83931.71;;;29.80;13.16
70437;BME280;57877;39.750;-104.894;2022-08-19T00:57:04;83930.65;;;29.40;13.26
70437;BME280;57877;39.750;-104.894;2022-08-19T00:59:28;83930.92;;;29.18;13.74
70437;BME280;57877;39.750;-104.894;2022-08-19T01:01:52;83924.87;;;28.30;13.90
70437;BME280;57877;39.750;-104.894;2022-08-19T01:04:17;83926.68;;;28.65;14.13
70437;BME280;57877;39.750;-104.894;2022-08-19T01:06:42;83928.51;;;28.31;14.56
70437;BME280;57877;39.750;-104.894;2022-08-19T01:09:07;83930.17;;;28.93;14.11
70437;BME280;57877;39.750;-104.894;2022-08-19T01:11:36;83927.25;;;28.01;14.78
70437;BME280;57877;39.750;-104.894;2022-08-19T01:13:57;83928.04;;;27.89;14.57
70437;BME280;57877;39.750;-104.894;2022-08-19T01:16:25;83929.11;;;28.05;14.56
70437;BME280;57877;39.750;-104.894;2022-08-19T01:18:49;83930.33;;;28.08;14.81
70437;BME280;57877;39.750;-104.894;2022-08-19T01:21:18;83932.99;;;28.76;14.48
70437;BME280;57877;39.750;-104.894;2022-08-19T01:23:40;83938.10;;;29.50;14.17
70437;BME280;57877;39.750;-104.894;2022-08-19T01:26:06;83935.88;;;28.84;14.35
70437;BME280;57877;39.750;-104.894;2022-08-19T01:28:32;83939.70;;;29.17;14.05
70437;BME280;57877;39.750;-104.894;2022-08-19T01:30:58;83941.51;;;28.98;13.92
70437;BME280;57877;39.750;-104.894;2022-08-19T01:33:24;83943.28;;;29.11;13.96
70437;BME280;57877;39.750;-104.894;2022-08-19T01:35:50;83943.42;;;28.49;14.44
70437;BME280;57877;39.750;-104.894;2022-08-19T01:38:22;83944.66;;;27.96;14.73
70437;BME280;57877;39.750;-104.894;2022-08-19T01:40:41;83943.97;;;28.06;15.02
70437;BME280;57877;39.750;-104.894;2022-08-19T01:43:06;83947.87;;;28.36;14.51
70437;BME280;57877;39.750;-104.894;2022-08-19T01:45:34;83948.84;;;28.78;14.15
70437;BME280;57877;39.750;-104.894;2022-08-19T01:47:58;83951.41;;;28.78;13.92
70437;BME280;57877;39.750;-104.894;2022-08-19T01:50:23;83951.86;;;28.71;13.89
70437;BME280;57877;39.750;-104.894;2022-08-19T01:52:50;83952.82;;;28.14;14.11
70437;BME280;57877;39.750;-104.894;2022-08-19T01:55:18;83954.07;;;28.54;13.89
70437;BME280;57877;39.750;-104.894;2022-08-19T01:57:42;83957.15;;;28.71;13.91
70437;BME280;57877;39.750;-104.894;2022-08-19T02:00:11;83959.35;;;28.16;14.23
70437;BME280;57877;39.750;-104.894;2022-08-19T02:02:30;83959.92;;;28.15;14.24
70437;BME280;57877;39.750;-104.894;2022-08-19T02:04:55;83961.35;;;28.79;14.16
70437;BME280;57877;39.750;-104.894;2022-08-19T02:07:21;83961.42;;;27.77;14.42
70437;BME280;57877;39.750;-104.894;2022-08-19T02:09:45;83962.90;;;27.90;14.40
70437;BME280;57877;39.750;-104.894;2022-08-19T02:12:10;83963.80;;;27.82;14.60
70437;BME280;57877;39.750;-104.894;2022-08-19T02:14:36;83965.74;;;27.38;15.16
70437;BME280;57877;39.750;-104.894;2022-08-19T02:17:00;83966.37;;;27.68;14.83
70437;BME280;57877;39.750;-104.894;2022-08-19T02:19:25;83966.71;;;27.89;14.82
70437;BME280;57877;39.750;-104.894;2022-08-19T02:21:51;83970.42;;;28.20;14.66
70437;BME280;57877;39.750;-104.894;2022-08-19T02:24:17;83973.56;;;27.76;14.94
70437;BME280;57877;39.750;-104.894;2022-08-19T02:26:42;83975.46;;;28.18;14.98
70437;BME280;57877;39.750;-104.894;2022-08-19T02:29:07;83979.18;;;28.32;14.97
70437;BME280;57877;39.750;-104.894;2022-08-19T02:31:32;83983.11;;;27.89;15.21
70437;BME280;57877;39.750;-104.894;2022-08-19T02:33:58;83982.90;;;27.62;15.31
70437;BME280;57877;39.750;-104.894;2022-08-19T02:36:25;83983.51;;;27.97;15.29
70437;BME280;57877;39.750;-104.894;2022-08-19T02:38:49;83988.07;;;27.51;15.36
70437;BME280;57877;39.750;-104.894;2022-08-19T02:41:18;83991.95;;;27.82;15.53
70437;BME280;57877;39.750;-104.894;2022-08-19T02:43:39;83991.11;;;27.68;15.50
70437;BME280;57877;39.750;-104.894;2022-08-19T02:46:13;83992.91;;;27.47;15.82
70437;BME280;57877;39.750;-104.894;2022-08-19T02:48:29;83994.95;;;27.03;16.33
70437;BME280;57877;39.750;-104.894;2022-08-19T02:50:54;83995.85;;;26.95;16.37
70437;BME280;57877;39.750;-104.894;2022-08-19T02:53:19;83997.36;;;26.36;16.65
70437;BME280;57877;39.750;-104.894;2022-08-19T02:55:45;83999.00;;;27.08;16.84
70437;BME280;57877;39.750;-104.894;2022-08-19T02:58:09;84001.28;;;27.06;16.67
70437;BME280;57877;39.750;-104.894;2022-08-19T03:00:34;84007.86;;;26.59;16.75
70437;BME280;57877;39.750;-104.894;2022-08-19T03:03:00;84010.73;;;27.47;16.55
70437;BME280;57877;39.750;-104.894;2022-08-19T03:05:25;84017.41;;;27.11;16.64
70437;BME280;57877;39.750;-104.894;2022-08-19T03:07:50;84019.86;;;27.09;16.76
70437;BME280;57877;39.750;-104.894;2022-08-19T03:10:15;84025.84;;;27.22;16.87
70437;BME280;57877;39.750;-104.894;2022-08-19T03:12:40;84027.52;;;27.16;16.93
70437;BME280;57877;39.750;-104.894;2022-08-19T03:15:07;84031.41;;;26.79;17.19
70437;BME280;57877;39.750;-104.894;2022-08-19T03:17:30;84033.71;;;26.70;16.99
70437;BME280;57877;39.750;-104.894;2022-08-19T03:19:55;84034.70;;;26.41;17.30
70437;BME280;57877;39.750;-104.894;2022-08-19T03:22:20;84034.19;;;26.90;17.07
70437;BME280;57877;39.750;-104.894;2022-08-19T03:24:45;84035.60;;;26.81;17.26
70437;BME280;57877;39.750;-104.894;2022-08-19T03:27:11;84035.50;;;26.72;17.34
70437;BME280;57877;39.750;-104.894;2022-08-19T03:29:37;84035.05;;;26.57;17.10
70437;BME280;57877;39.750;-104.894;2022-08-19T03:32:04;84034.80;;;26.72;17.66
70437;BME280;57877;39.750;-104.894;2022-08-19T03:34:28;84034.53;;;26.56;17.35
70437;BME280;57877;39.750;-104.894;2022-08-19T03:36:51;84035.63;;;26.76;17.32
70437;BME280;57877;39.750;-104.894;2022-08-19T03:39:16;84034.54;;;26.56;17.17
70437;BME280;57877;39.750;-104.894;2022-08-19T03:41:43;84032.94;;;27.04;16.70
70437;BME280;57877;39.750;-104.894;2022-08-19T03:44:06;84037.13;;;27.19;16.98
70437;BME280;57877;39.750;-104.894;2022-08-19T03:46:32;84036.83;;;27.15;16.99
70437;BME280;57877;39.750;-104.894;2022-08-19T03:48:58;84038.92;;;26.67;17.43
70437;BME280;57877;39.750;-104.894;2022-08-19T03:51:24;84040.99;;;26.68;17.39
70437;BME280;57877;39.750;-104.894;2022-08-19T03:53:47;84040.59;;;26.50;17.68
70437;BME280;57877;39.750;-104.894;2022-08-19T03:56:11;84038.83;;;26.72;17.98
70437;BME280;57877;39.750;-104.894;2022-08-19T03:58:36;84041.33;;;26.41;18.09
70437;BME280;57877;39.750;-104.894;2022-08-19T04:01:01;84042.05;;;26.39;17.96
70437;BME280;57877;39.750;-104.894;2022-08-19T04:03:26;84045.67;;;26.10;18.02
70437;BME280;57877;39.750;-104.894;2022-08-19T04:05:51;84046.55;;;26.45;18.15
70437;BME280;57877;39.750;-104.894;2022-08-19T04:08:17;84047.31;;;26.37;17.96
70437;BME280;57877;39.750;-104.894;2022-08-19T04:10:41;84047.13;;;26.39;17.94
70437;BME280;57877;39.750;-104.894;2022-08-19T04:13:06;84044.61;;;26.20;18.14
70437;BME280;57877;39.750;-104.894;2022-08-19T04:15:32;84048.10;;;26.13;18.50
70437;BME280;57877;39.750;-104.894;2022-08-19T04:17:56;84048.07;;;26.49;18.16
70437;BME280;57877;39.750;-104.894;2022-08-19T04:20:22;84047.22;;;26.22;18.09
70437;BME280;57877;39.750;-104.894;2022-08-19T04:22:46;84052.06;;;26.29;18.36
70437;BME280;57877;39.750;-104.894;2022-08-19T04:25:12;84052.25;;;26.43;18.30
70437;BME280;57877;39.750;-104.894;2022-08-19T04:27:37;84054.21;;;25.98;18.41
70437;BME280;57877;39.750;-104.894;2022-08-19T04:30:02;84060.95;;;26.26;18.76
70437;BME280;57877;39.750;-104.894;2022-08-19T04:32:26;84065.74;;;26.13;19.00
70437;BME280;57877;39.750;-104.894;2022-08-19T04:34:52;84068.23;;;26.05;19.52
70437;BME280;57877;39.750;-104.894;2022-08-19T04:37:17;84068.99;;;26.20;19.39
70437;BME280;57877;39.750;-104.894;2022-08-19T04:39:42;84070.89;;;25.86;19.57
70437;BME280;57877;39.750;-104.894;2022-08-19T04:42:07;84073.71;;;25.88;20.00
70437;BME280;57877;39.750;-104.894;2022-08-19T04:44:33;84072.72;;;25.66;20.10
70437;BME280;57877;39.750;-104.894;2022-08-19T04:46:57;84074.88;;;25.63;20.17
70437;BME280;57877;39.750;-104.894;2022-08-19T04:49:23;84080.04;;;25.45;20.62
70437;BME280;57877;39.750;-104.894;2022-08-19T04:51:48;84082.78;;;25.40;20.53
70437;BME280;57877;39.750;-104.894;2022-08-19T04:54:13;84085.72;;;25.28;20.49
70437;BME280;57877;39.750;-104.894;2022-08-19T04:56:40;84084.56;;;25.44;20.57
70437;BME280;57877;39.750;-104.894;2022-08-19T04:59:05;84084.46;;;25.37;20.47
70437;BME280;57877;39.750;-104.894;2022-08-19T05:01:32;84081.09;;;25.48;20.47
70437;BME280;57877;39.750;-104.894;2022-08-19T05:03:58;84081.53;;;25.38;20.76
70437;BME280;57877;39.750;-104.894;2022-08-19T05:06:23;84085.21;;;25.19;21.22
70437;BME280;57877;39.750;-104.894;2022-08-19T05:08:49;84082.32;;;25.34;20.70
70437;BME280;57877;39.750;-104.894;2022-08-19T05:11:18;84081.07;;;25.43;20.74
70437;BME280;57877;39.750;-104.894;2022-08-19T05:13:42;84081.76;;;25.20;20.88
70437;BME280;57877;39.750;-104.894;2022-08-19T05:16:07;84082.97;;;24.90;20.70
70437;BME280;57877;39.750;-104.894;2022-08-19T05:18:33;84086.94;;;24.60;21.38
70437;BME280;57877;39.750;-104.894;2022-08-19T05:21:01;84083.68;;;24.87;21.49
70437;BME280;57877;39.750;-104.894;2022-08-19T05:23:26;84084.43;;;24.72;21.25
70437;BME280;57877;39.750;-104.894;2022-08-19T05:25:51;84087.56;;;24.85;21.25
70437;BME280;57877;39.750;-104.894;2022-08-19T05:28:17;84088.52;;;24.47;22.47
70437;BME280;57877;39.750;-104.894;2022-08-19T05:30:43;84087.30;;;24.31;22.28
70437;BME280;57877;39.750;-104.894;2022-08-19T05:33:09;84086.38;;;24.34;22.28
70437;BME280;57877;39.750;-104.894;2022-08-19T05:35:37;84088.87;;;24.51;22.29
70437;BME280;57877;39.750;-104.894;2022-08-19T05:38:01;84086.84;;;24.34;22.13
70437;BME280;57877;39.750;-104.894;2022-08-19T05:40:27;84086.51;;;24.34;21.72
70437;BME280;57877;39.750;-104.894;2022-08-19T05:42:53;84088.61;;;24.47;22.53
70437;BME280;57877;39.750;-104.894;2022-08-19T05:45:19;84083.92;;;24.21;23.07
70437;BME280;57877;39.750;-104.894;2022-08-19T05:47:45;84079.58;;;24.05;22.97
70437;BME280;57877;39.750;-104.894;2022-08-19T05:50:11;84075.06;;;24.08;22.82
70437;BME280;57877;39.750;-104.894;2022-08-19T05:52:38;84074.30;;;24.21;22.87
70437;BME280;57877;39.750;-104.894;2022-08-19T05:55:04;84074.65;;;24.27;22.68
70437;BME280;57877;39.750;-104.894;2022-08-19T05:57:30;84078.00;;;24.07;22.93
70437;BME280;57877;39.750;-104.894;2022-08-19T05:59:55;84077.43;;;24.12;23.31
70437;BME280;57877;39.750;-104.894;2022-08-19T06:02:21;84075.09;;;24.09;23.55
70437;BME280;57877;39.750;-104.894;2022-08-19T06:04:47;84072.04;;;24.14;23.20
70437;BME280;57877;39.750;-104.894;2022-08-19T06:07:13;84072.59;;;23.98;23.84
70437;BME280;57877;39.750;-104.894;2022-08-19T06:09:40;84069.75;;;23.82;23.56
70437;BME280;57877;39.750;-104.894;2022-08-19T06:12:06;84072.49;;;23.48;23.15
70437;BME280;57877;39.750;-104.894;2022-08-19T06:14:34;84067.81;;;24.02;22.60
70437;BME280;57877;39.750;-104.894;2022-08-19T06:16:58;84066.56;;;23.70;24.54
70437;BME280;57877;39.750;-104.894;2022-08-19T06:19:24;84064.74;;;23.68;24.76
70437;BME280;57877;39.750;-104.894;2022-08-19T06:21:51;84066.25;;;23.90;24.78
70437;BME280;57877;39.750;-104.894;2022-08-19T06:24:19;84065.52;;;23.92;24.87
70437;BME280;57877;39.750;-104.894;2022-08-19T06:26:43;84062.64;;;23.91;25.14
70437;BME280;57877;39.750;-104.894;2022-08-19T06:29:08;84059.30;;;23.52;23.98
70437;BME280;57877;39.750;-104.894;2022-08-19T06:31:34;84058.49;;;23.95;24.74
70437;BME280;57877;39.750;-104.894;2022-08-19T06:33:59;84053.97;;;23.75;24.41
70437;BME280;57877;39.750;-104.894;2022-08-19T06:36:27;84052.03;;;24.02;23.68
70437;BME280;57877;39.750;-104.894;2022-08-19T06:38:50;84056.06;;;23.23;25.48
70437;BME280;57877;39.750;-104.894;2022-08-19T06:41:16;84054.01;;;23.36;25.52
70437;BME280;57877;39.750;-104.894;2022-08-19T06:43:42;84056.69;;;23.52;25.47
70437;BME280;57877;39.750;-104.894;2022-08-19T06:46:12;84054.11;;;23.45;25.97
70437;BME280;57877;39.750;-104.894;2022-08-19T06:48:34;84048.13;;;23.15;25.11
70437;BME280;57877;39.750;-104.894;2022-08-19T06:51:00;84043.41;;;23.13;25.75
70437;BME280;57877;39.750;-104.894;2022-08-19T06:53:26;84041.38;;;23.06;25.69
70437;BME280;57877;39.750;-104.894;2022-08-19T06:55:53;84040.46;;;22.93;25.35
70437;BME280;57877;39.750;-104.894;2022-08-19T06:58:19;84038.76;;;23.08;25.23
70437;BME280;57877;39.750;-104.894;2022-08-19T07:00:44;84034.45;;;22.93;24.93
70437;BME280;57877;39.750;-104.894;2022-08-19T07:03:09;84036.30;;;22.28;25.28
70437;BME280;57877;39.750;-104.894;2022-08-19T07:05:38;84033.81;;;22.93;24.95
70437;BME280;57877;39.750;-104.894;2022-08-19T07:08:04;84034.25;;;22.85;25.28
70437;BME280;57877;39.750;-104.894;2022-08-19T07:10:24;84033.12;;;23.13;25.21
70437;BME280;57877;39.750;-104.894;2022-08-19T07:12:49;84033.25;;;22.77;25.32
70437;BME280;57877;39.750;-104.894;2022-08-19T07:15:14;84032.72;;;22.30;25.57
70437;BME280;57877;39.750;-104.894;2022-08-19T07:17:40;84029.64;;;22.55;25.47
70437;BME280;57877;39.750;-104.894;2022-08-19T07:20:06;84028.31;;;22.58;25.71
70437;BME280;57877;39.750;-104.894;2022-08-19T07:22:31;84024.97;;;22.15;25.79
70437;BME280;57877;39.750;-104.894;2022-08-19T07:24:56;84022.98;;;22.32;25.84
70437;BME280;57877;39.750;-104.894;2022-08-19T07:27:22;84018.02;;;22.39;25.63
70437;BME280;57877;39.750;-104.894;2022-08-19T07:29:46;84013.89;;;22.83;25.85
70437;BME280;57877;39.750;-104.894;2022-08-19T07:32:11;84014.59;;;22.71;25.90
70437;BME280;57877;39.750;-104.894;2022-08-19T07:34:36;84014.21;;;22.26;26.18
70437;BME280;57877;39.750;-104.894;2022-08-19T07:37:01;84010.62;;;22.48;25.79
70437;BME280;57877;39.750;-104.894;2022-08-19T07:39:28;84009.90;;;22.46;26.27
70437;BME280;57877;39.750;-104.894;2022-08-19T07:41:51;84011.18;;;21.96;26.22
70437;BME280;57877;39.750;-104.894;2022-08-19T07:44:17;84010.53;;;21.70;26.57
70437;BME280;57877;39.750;-104.894;2022-08-19T07:46:44;84009.38;;;22.16;26.79
70437;BME280;57877;39.750;-104.894;2022-08-19T07:49:08;84005.02;;;22.16;26.71
70437;BME280;57877;39.750;-104.894;2022-08-19T07:51:33;83997.07;;;22.26;26.58
70437;BME280;57877;39.750;-104.894;2022-08-19T07:53:57;83992.64;;;22.41;26.75
70437;BME280;57877;39.750;-104.894;2022-08-19T07:56:23;83990.11;;;22.39;26.92
70437;BME280;57877;39.750;-104.894;2022-08-19T07:58:50;83987.49;;;22.31;26.86
70437;BME280;57877;39.750;-104.894;2022-08-19T08:01:15;83985.30;;;22.17;27.13
70437;BME280;57877;39.750;-104.894;2022-08-19T08:03:37;83986.86;;;22.26;27.07
70437;BME280;57877;39.750;-104.894;2022-08-19T08:06:02;83984.92;;;22.36;27.45
70437;BME280;57877;39.750;-104.894;2022-08-19T08:08:30;83985.39;;;21.96;28.22
70437;BME280;57877;39.750;-104.894;2022-08-19T08:10:53;83982.36;;;21.53;27.76
70437;BME280;57877;39.750;-104.894;2022-08-19T08:13:18;83979.69;;;22.04;27.61
70437;BME280;57877;39.750;-104.894;2022-08-19T08:15:43;83981.87;;;21.84;28.20
70437;BME280;57877;39.750;-104.894;2022-08-19T08:18:10;83983.00;;;21.64;27.89
70437;BME280;57877;39.750;-104.894;2022-08-19T08:20:35;83984.68;;;21.64;28.13
70437;BME280;57877;39.750;-104.894;2022-08-19T08:23:00;83986.73;;;21.65;27.97
70437;BME280;57877;39.750;-104.894;2022-08-19T08:25:27;83985.83;;;21.61;28.02
70437;BME280;57877;39.750;-104.894;2022-08-19T08:27:52;83985.05;;;21.33;28.44
70437;BME280;57877;39.750;-104.894;2022-08-19T08:30:20;83983.83;;;21.42;28.67
70437;BME280;57877;39.750;-104.894;2022-08-19T08:32:46;83980.90;;;21.14;28.72
70437;BME280;57877;39.750;-104.894;2022-08-19T08:35:13;83978.49;;;21.28;28.44
70437;BME280;57877;39.750;-104.894;2022-08-19T08:37:37;83976.95;;;21.30;28.16
70437;BME280;57877;39.750;-104.894;2022-08-19T08:40:03;83976.27;;;21.35;28.43
70437;BME280;57877;39.750;-104.894;2022-08-19T08:42:30;83975.10;;;21.41;28.26
70437;BME280;57877;39.750;-104.894;2022-08-19T08:44:59;83973.84;;;21.36;28.21
70437;BME280;57877;39.750;-104.894;2022-08-19T08:47:21;83970.98;;;21.19;28.63
70437;BME280;57877;39.750;-104.894;2022-08-19T08:49:50;83968.12;;;21.40;28.30
70437;BME280;57877;39.750;-104.894;2022-08-19T08:52:18;83965.62;;;20.94;28.66
70437;BME280;57877;39.750;-104.894;2022-08-19T08:54:40;83964.11;;;21.16;28.65
70437;BME280;57877;39.750;-104.894;2022-08-19T08:57:17;83965.75;;;21.01;28.53
70437;BME280;57877;39.750;-104.894;2022-08-19T08:59:33;83962.74;;;21.07;28.69
70437;BME280;57877;39.750;-104.894;2022-08-19T09:01:56;83960.84;;;21.02;28.94
70437;BME280;57877;39.750;-104.894;2022-08-19T09:04:22;83959.09;;;20.98;28.69
70437;BME280;57877;39.750;-104.894;2022-08-19T09:06:54;83959.25;;;21.24;28.63
70437;BME280;57877;39.750;-104.894;2022-08-19T09:09:15;83959.13;;;20.86;29.00
70437;BME280;57877;39.750;-104.894;2022-08-19T09:11:48;83958.32;;;21.15;28.86
70437;BME280;57877;39.750;-104.894;2022-08-19T09:14:09;83955.28;;;20.85;28.91
70437;BME280;57877;39.750;-104.894;2022-08-19T09:16:28;83951.69;;;20.20;29.58
70437;BME280;57877;39.750;-104.894;2022-08-19T09:18:57;83948.33;;;20.68;29.29
70437;BME280;57877;39.750;-104.894;2022-08-19T09:21:18;83944.08;;;20.31;29.57
70437;BME280;57877;39.750;-104.894;2022-08-19T09:23:43;83939.30;;;20.72;29.55
70437;BME280;57877;39.750;-104.894;2022-08-19T09:26:10;83937.21;;;20.64;29.51
70437;BME280;57877;39.750;-104.894;2022-08-19T09:28:33;83937.81;;;20.64;29.36
70437;BME280;57877;39.750;-104.894;2022-08-19T09:30:58;83935.49;;;20.46;29.67
70437;BME280;57877;39.750;-104.894;2022-08-19T09:33:23;83937.13;;;19.79;30.13
70437;BME280;57877;39.750;-104.894;2022-08-19T09:35:48;83936.88;;;20.28;30.17
70437;BME280;57877;39.750;-104.894;2022-08-19T09:38:13;83938.68;;;20.24;30.37
70437;BME280;57877;39.750;-104.894;2022-08-19T09:40:38;83937.40;;;19.86;30.76
70437;BME280;57877;39.750;-104.894;2022-08-19T09:43:03;83937.44;;;19.66;31.05
70437;BME280;57877;39.750;-104.894;2022-08-19T09:45:28;83936.82;;;19.37;31.76
70437;BME280;57877;39.750;-104.894;2022-08-19T09:47:53;83934.98;;;19.65;31.06
70437;BME280;57877;39.750;-104.894;2022-08-19T09:50:18;83931.09;;;19.44;31.41
70437;BME280;57877;39.750;-104.894;2022-08-19T09:52:43;83927.74;;;19.19;31.26
70437;BME280;57877;39.750;-104.894;2022-08-19T09:55:10;83923.49;;;19.38;31.41
70437;BME280;57877;39.750;-104.894;2022-08-19T09:57:33;83924.55;;;19.07;31.33
70437;BME280;57877;39.750;-104.894;2022-08-19T09:59:58;83926.10;;;19.46;31.18
70437;BME280;57877;39.750;-104.894;2022-08-19T10:02:23;83930.21;;;19.56;30.85
70437;BME280;57877;39.750;-104.894;2022-08-19T10:04:48;83930.24;;;19.35;30.83
70437;BME280;57877;39.750;-104.894;2022-08-19T10:07:13;83926.58;;;19.36;30.73
70437;BME280;57877;39.750;-104.894;2022-08-19T10:09:38;83923.63;;;19.59;30.49
70437;BME280;57877;39.750;-104.894;2022-08-19T10:12:05;83921.14;;;19.25;30.30
70437;BME280;57877;39.750;-104.894;2022-08-19T10:14:29;83923.64;;;19.90;29.89
70437;BME280;57877;39.750;-104.894;2022-08-19T10:16:53;83926.13;;;19.21;30.14
70437;BME280;57877;39.750;-104.894;2022-08-19T10:19:19;83932.04;;;19.70;29.99
70437;BME280;57877;39.750;-104.894;2022-08-19T10:21:45;83935.66;;;19.46;30.02
70437;BME280;57877;39.750;-104.894;2022-08-19T10:24:10;83933.66;;;19.88;29.88
70437;BME280;57877;39.750;-104.894;2022-08-19T10:26:39;83933.27;;;18.97;30.51
70437;BME280;57877;39.750;-104.894;2022-08-19T10:29:01;83932.60;;;19.38;30.23
70437;BME280;57877;39.750;-104.894;2022-08-19T10:31:29;83931.94;;;19.39;30.36
70437;BME280;57877;39.750;-104.894;2022-08-19T10:33:52;83928.53;;;19.62;30.09
70437;BME280;57877;39.750;-104.894;2022-08-19T10:36:19;83929.00;;;19.65;30.29
70437;BME280;57877;39.750;-104.894;2022-08-19T10:38:42;83922.26;;;19.92;29.97
70437;BME280;57877;39.750;-104.894;2022-08-19T10:41:08;83920.53;;;19.92;30.00
70437;BME280;57877;39.750;-104.894;2022-08-19T10:43:32;83917.16;;;19.51;30.16
70437;BME280;57877;39.750;-104.894;2022-08-19T10:45:57;83912.20;;;19.74;29.99
70437;BME280;57877;39.750;-104.894;2022-08-19T10:48:22;83909.97;;;19.65;30.09
70437;BME280;57877;39.750;-104.894;2022-08-19T10:50:47;83911.50;;;19.70;30.65
70437;BME280;57877;39.750;-104.894;2022-08-19T10:53:13;83908.82;;;19.87;30.25
70437;BME280;57877;39.750;-104.894;2022-08-19T10:55:39;83911.22;;;19.62;30.29
70437;BME280;57877;39.750;-104.894;2022-08-19T10:58:10;83913.85;;;19.63;30.40
70437;BME280;57877;39.750;-104.894;2022-08-19T11:00:30;83911.55;;;18.80;31.71
70437;BME280;57877;39.750;-104.894;2022-08-19T11:02:55;83912.38;;;18.95;31.15
70437;BME280;57877;39.750;-104.894;2022-08-19T11:05:21;83908.70;;;19.02;31.36
70437;BME280;57877;39.750;-104.894;2022-08-19T11:07:45;83908.67;;;19.42;31.19
70437;BME280;57877;39.750;-104.894;2022-08-19T11:10:13;83907.50;;;18.73;31.74
70437;BME280;57877;39.750;-104.894;2022-08-19T11:12:37;83907.88;;;18.72;32.22
70437;BME280;57877;39.750;-104.894;2022-08-19T11:15:00;83906.35;;;18.91;32.28
70437;BME280;57877;39.750;-104.894;2022-08-19T11:17:26;83906.01;;;18.42;32.75
70437;BME280;57877;39.750;-104.894;2022-08-19T11:19:50;83905.85;;;18.48;32.70
70437;BME280;57877;39.750;-104.894;2022-08-19T11:22:16;83907.19;;;18.57;32.57
70437;BME280;57877;39.750;-104.894;2022-08-19T11:24:41;83906.01;;;18.56;32.76
70437;BME280;57877;39.750;-104.894;2022-08-19T11:27:08;83905.01;;;18.37;32.90
70437;BME280;57877;39.750;-104.894;2022-08-19T11:29:31;83908.17;;;18.50;32.64
70437;BME280;57877;39.750;-104.894;2022-08-19T11:31:57;83909.57;;;18.70;32.44
70437;BME280;57877;39.750;-104.894;2022-08-19T11:34:24;83910.33;;;19.03;32.41
70437;BME280;57877;39.750;-104.894;2022-08-19T11:36:50;83910.18;;;18.35;32.74
70437;BME280;57877;39.750;-104.894;2022-08-19T11:39:16;83909.79;;;18.29;32.88
70437;BME280;57877;39.750;-104.894;2022-08-19T11:41:41;83909.86;;;18.63;32.53
70437;BME280;57877;39.750;-104.894;2022-08-19T11:44:07;83908.50;;;18.64;32.44
70437;BME280;57877;39.750;-104.894;2022-08-19T11:46:33;83907.77;;;18.48;32.71
70437;BME280;57877;39.750;-104.894;2022-08-19T11:49:00;83905.94;;;18.45;33.27
70437;BME280;57877;39.750;-104.894;2022-08-19T11:51:25;83905.07;;;18.39;33.34
70437;BME280;57877;39.750;-104.894;2022-08-19T11:53:51;83903.70;;;18.52;33.16
70437;BME280;57877;39.750;-104.894;2022-08-19T11:56:16;83905.24;;;18.37;33.38
70437;BME280;57877;39.750;-104.894;2022-08-19T11:58:42;83904.45;;;18.43;32.90
70437;BME280;57877;39.750;-104.894;2022-08-19T12:01:09;83904.72;;;18.52;32.90
70437;BME280;57877;39.750;-104.894;2022-08-19T12:03:34;83905.43;;;18.42;33.04
70437;BME280;57877;39.750;-104.894;2022-08-19T12:06:04;83908.07;;;18.68;32.96
70437;BME280;57877;39.750;-104.894;2022-08-19T12:08:26;83908.69;;;18.67;32.57
70437;BME280;57877;39.750;-104.894;2022-08-19T12:10:52;83912.74;;;18.61;32.59
70437;BME280;57877;39.750;-104.894;2022-08-19T12:13:18;83915.11;;;18.54;32.73
70437;BME280;57877;39.750;-104.894;2022-08-19T12:15:45;83916.25;;;18.46;32.71
70437;BME280;57877;39.750;-104.894;2022-08-19T12:18:09;83919.34;;;18.80;32.39
70437;BME280;57877;39.750;-104.894;2022-08-19T12:20:36;83920.83;;;18.70;32.04